sensor_id;sensor_type;location;lat;lon;timestamp;temperature;humidity
42885;DHT22;28534;48.100;11.584;2022-10-16T03:00:18;22.00;77.60
42885;DHT22;28534;48.100;11.584;2022-10-16T03:05:20;22.00;77.60
42885;DHT22;28534;48.100;11.584;2022-10-16T03:10:21;22.00;77.50
42885;DHT22;28534;48.100;11.584;2022-10-16T03:15:24;22.10;77.70
42885;DHT22;28534;48.100;11.584;2022-10-16T03:20:28;22.10;77.60
42885;DHT22;28534;48.100;11.584;2022-10-16T03:25:30;22.10;77.40
42885;DHT22;28534;48.100;11.584;2022-10-16T03:30:33;22.20;77.20
42885;DHT22;28534;48.100;11.584;2022-10-16T03:35:35;22.30;77.00
42885;DHT22;28534;48.100;11.584;2022-10-16T03:40:37;22.30;76.70
42885;DHT22;28534;48.100;11.584;2022-10-16T03:45:40;22.40;76.60
42885;DHT22;28534;48.100;11.584;2022-10-16T03:50:41;22.40;76.40
42885;DHT22;28534;48.100;11.584;2022-10-16T03:55:44;22.40;76.30
42885;DHT22;28534;48.100;11.584;2022-10-16T04:00:47;22.50;76.20
42885;DHT22;28534;48.100;11.584;2022-10-16T04:05:49;22.50;76.20
42885;DHT22;28534;48.100;11.584;2022-10-16T04:10:51;22.50;76.20
42885;DHT22;28534;48.100;11.584;2022-10-16T04:15:54;22.50;76.20
42885;DHT22;28534;48.100;11.584;2022-10-16T04:20:56;22.50;76.20
42885;DHT22;28534;48.100;11.584;2022-10-16T04:25:58;22.50;76.20
42885;DHT22;28534;48.100;11.584;2022-10-16T04:31:03;22.50;76.30
42885;DHT22;28534;48.100;11.584;2022-10-16T04:36:05;22.60;76.10
42885;DHT22;28534;48.100;11.584;2022-10-16T04:41:07;22.50;76.10
42885;DHT22;28534;48.100;11.584;2022-10-16T04:46:10;22.60;76.10
42885;DHT22;28534;48.100;11.584;2022-10-16T04:51:12;22.60;75.90
42885;DHT22;28534;48.100;11.584;2022-10-16T04:56:14;22.60;75.80
42885;DHT22;28534;48.100;11.584;2022-10-16T05:01:17;22.70;75.80
42885;DHT22;28534;48.100;11.584;2022-10-16T05:06:19;22.60;75.60
42885;DHT22;28534;48.100;11.584;2022-10-16T05:11:21;22.60;75.50
42885;DHT22;28534;48.100;11.584;2022-10-16T05:16:24;22.60;76.30
42885;DHT22;28534;48.100;11.584;2022-10-16T05:21:26;22.70;76.60
42885;DHT22;28534;48.100;11.584;2022-10-16T05:26:27;22.70;77.50
42885;DHT22;28534;48.100;11.584;2022-10-16T05:31:30;22.70;76.80
42885;DHT22;28534;48.100;11.584;2022-10-16T05:36:32;22.70;76.20
42885;DHT22;28534;48.100;11.584;2022-10-16T05:41:34;22.70;74.20
42885;DHT22;28534;48.100;11.584;2022-10-16T05:46:37;22.70;73.00
42885;DHT22;28534;48.100;11.584;2022-10-16T05:51:39;22.70;72.10
42885;DHT22;28534;48.100;11.584;2022-10-16T05:56:41;22.70;72.80
42885;DHT22;28534;48.100;11.584;2022-10-16T06:01:45;22.70;73.80
42885;DHT22;28534;48.100;11.584;2022-10-16T06:06:46;22.80;73.90
42885;DHT22;28534;48.100;11.584;2022-10-16T06:11:48;22.80;74.00
42885;DHT22;28534;48.100;11.584;2022-10-16T06:16:51;22.80;72.60
42885;DHT22;28534;48.100;11.584;2022-10-16T06:21:53;22.80;71.40
42885;DHT22;28534;48.100;11.584;2022-10-16T06:26:55;22.70;71.60
42885;DHT22;28534;48.100;11.584;2022-10-16T06:31:58;22.70;70.40
42885;DHT22;28534;48.100;11.584;2022-10-16T06:36:59;22.70;69.20
42885;DHT22;28534;48.100;11.584;2022-10-16T06:42:01;22.70;68.90
42885;DHT22;28534;48.100;11.584;2022-10-16T06:47:04;22.70;70.20
42885;DHT22;28534;48.100;11.584;2022-10-16T06:52:06;22.60;70.60
42885;DHT22;28534;48.100;11.584;2022-10-16T06:57:08;22.60;70.80
42885;DHT22;28534;48.100;11.584;2022-10-16T07:02:11;22.50;71.00
42885;DHT22;28534;48.100;11.584;2022-10-16T07:07:13;22.60;71.40
42885;DHT22;28534;48.100;11.584;2022-10-16T07:12:14;22.50;71.30
42885;DHT22;28534;48.100;11.584;2022-10-16T07:17:17;22.50;71.70
42885;DHT22;28534;48.100;11.584;2022-10-16T07:22:19;22.50;71.70
42885;DHT22;28534;48.100;11.584;2022-10-16T07:27:21;22.50;71.80
42885;DHT22;28534;48.100;11.584;2022-10-16T07:32:25;22.50;72.10
42885;DHT22;28534;48.100;11.584;2022-10-16T07:37:27;22.60;72.60
42885;DHT22;28534;48.100;11.584;2022-10-16T07:42:29;22.60;73.00
42885;DHT22;28534;48.100;11.584;2022-10-16T07:47:32;22.60;73.20
42885;DHT22;28534;48.100;11.584;2022-10-16T07:52:34;22.70;73.70
42885;DHT22;28534;48.100;11.584;2022-10-16T07:57:35;22.60;73.70
42885;DHT22;28534;48.100;11.584;2022-10-16T08:02:38;22.70;74.00
42885;DHT22;28534;48.100;11.584;2022-10-16T08:07:40;22.70;74.20
42885;DHT22;28534;48.100;11.584;2022-10-16T08:12:42;22.80;74.60
42885;DHT22;28534;48.100;11.584;2022-10-16T08:17:54;22.80;74.70
42885;DHT22;28534;48.100;11.584;2022-10-16T08:22:56;22.70;74.40
42885;DHT22;28534;48.100;11.584;2022-10-16T08:27:58;22.70;74.90
42885;DHT22;28534;48.100;11.584;2022-10-16T08:33:01;22.70;74.70
42885;DHT22;28534;48.100;11.584;2022-10-16T08:38:03;22.80;75.50
42885;DHT22;28534;48.100;11.584;2022-10-16T08:43:18;22.80;75.60
42885;DHT22;28534;48.100;11.584;2022-10-16T08:48:29;22.80;76.20
42885;DHT22;28534;48.100;11.584;2022-10-16T08:53:38;22.80;77.00
42885;DHT22;28534;48.100;11.584;2022-10-16T08:58:43;22.80;77.50
42885;DHT22;28534;48.100;11.584;2022-10-16T09:04:19;22.90;77.80
42885;DHT22;28534;48.100;11.584;2022-10-16T09:09:35;22.90;77.60
42885;DHT22;28534;48.100;11.584;2022-10-16T09:15:13;22.90;77.70
42885;DHT22;28534;48.100;11.584;2022-10-16T09:20:28;22.80;77.30
42885;DHT22;28534;48.100;11.584;2022-10-16T09:25:31;22.70;73.00
42885;DHT22;28534;48.100;11.584;2022-10-16T09:30:33;22.70;73.50
42885;DHT22;28534;48.100;11.584;2022-10-16T09:35:39;22.70;73.80
42885;DHT22;28534;48.100;11.584;2022-10-16T09:40:42;22.80;73.30
42885;DHT22;28534;48.100;11.584;2022-10-16T09:45:54;22.60;69.90
42885;DHT22;28534;48.100;11.584;2022-10-16T09:50:59;22.70;68.90
42885;DHT22;28534;48.100;11.584;2022-10-16T09:56:01;22.60;66.70
42885;DHT22;28534;48.100;11.584;2022-10-16T10:01:11;22.60;66.80
42885;DHT22;28534;48.100;11.584;2022-10-16T10:06:22;22.50;63.60
42885;DHT22;28534;48.100;11.584;2022-10-16T10:11:45;22.50;63.00
42885;DHT22;28534;48.100;11.584;2022-10-16T10:16:48;22.60;61.80
42885;DHT22;28534;48.100;11.584;2022-10-16T10:21:52;22.60;61.50
42885;DHT22;28534;48.100;11.584;2022-10-16T10:26:58;22.60;61.10
42885;DHT22;28534;48.100;11.584;2022-10-16T10:32:12;22.60;59.70
42885;DHT22;28534;48.100;11.584;2022-10-16T10:37:32;22.70;58.60
42885;DHT22;28534;48.100;11.584;2022-10-16T10:42:43;22.80;60.00
42885;DHT22;28534;48.100;11.584;2022-10-16T10:48:06;22.80;58.90
42885;DHT22;28534;48.100;11.584;2022-10-16T10:53:29;22.90;58.00
42885;DHT22;28534;48.100;11.584;2022-10-16T10:58:50;22.90;57.30
42885;DHT22;28534;48.100;11.584;2022-10-16T11:04:07;22.90;57.60
42885;DHT22;28534;48.100;11.584;2022-10-16T11:09:16;23.00;58.00
42885;DHT22;28534;48.100;11.584;2022-10-16T11:14:21;22.90;57.50
42885;DHT22;28534;48.100;11.584;2022-10-16T11:19:31;23.00;56.70
42885;DHT22;28534;48.100;11.584;2022-10-16T11:24:42;23.00;56.00
42885;DHT22;28534;48.100;11.584;2022-10-16T11:29:49;23.10;54.90
42885;DHT22;28534;48.100;11.584;2022-10-16T11:34:58;23.10;55.70
42885;DHT22;28534;48.100;11.584;2022-10-16T11:40:16;23.10;55.00
42885;DHT22;28534;48.100;11.584;2022-10-16T11:45:26;23.00;54.80
42885;DHT22;28534;48.100;11.584;2022-10-16T11:50:31;23.00;53.40
42885;DHT22;28534;48.100;11.584;2022-10-16T11:55:37;23.00;51.80
42885;DHT22;28534;48.100;11.584;2022-10-16T12:00:45;22.90;50.80
42885;DHT22;28534;48.100;11.584;2022-10-16T12:05:59;22.90;51.00
42885;DHT22;28534;48.100;11.584;2022-10-16T12:11:23;23.00;51.60
42885;DHT22;28534;48.100;11.584;2022-10-16T12:16:25;23.10;52.00
42885;DHT22;28534;48.100;11.584;2022-10-16T12:21:30;23.10;51.00
42885;DHT22;28534;48.100;11.584;2022-10-16T12:26:37;23.10;51.00
42885;DHT22;28534;48.100;11.584;2022-10-16T12:31:44;23.10;50.00
42885;DHT22;28534;48.100;11.584;2022-10-16T12:36:46;23.00;50.50
42885;DHT22;28534;48.100;11.584;2022-10-16T12:42:00;23.10;51.10
42885;DHT22;28534;48.100;11.584;2022-10-16T12:47:03;23.10;49.90
42885;DHT22;28534;48.100;11.584;2022-10-16T12:52:28;23.10;49.80
42885;DHT22;28534;48.100;11.584;2022-10-16T12:57:41;23.10;50.10
42885;DHT22;28534;48.100;11.584;2022-10-16T13:03:11;23.10;50.40
42885;DHT22;28534;48.100;11.584;2022-10-16T13:08:33;23.10;50.90
42885;DHT22;28534;48.100;11.584;2022-10-16T13:14:05;23.10;50.80
42885;DHT22;28534;48.100;11.584;2022-10-16T13:19:20;23.10;51.20
42885;DHT22;28534;48.100;11.584;2022-10-16T13:24:42;23.20;50.80
42885;DHT22;28534;48.100;11.584;2022-10-16T13:29:52;23.30;50.70
42885;DHT22;28534;48.100;11.584;2022-10-16T13:34:55;23.30;50.10
42885;DHT22;28534;48.100;11.584;2022-10-16T13:40:18;23.30;50.40
42885;DHT22;28534;48.100;11.584;2022-10-16T13:45:24;23.40;51.20
42885;DHT22;28534;48.100;11.584;2022-10-16T13:50:26;23.30;51.00
42885;DHT22;28534;48.100;11.584;2022-10-16T13:55:28;23.40;51.30
42885;DHT22;28534;48.100;11.584;2022-10-16T14:00:31;23.40;50.40
42885;DHT22;28534;48.100;11.584;2022-10-16T14:05:33;23.40;50.90
42885;DHT22;28534;48.100;11.584;2022-10-16T14:10:35;23.30;50.80
42885;DHT22;28534;48.100;11.584;2022-10-16T14:15:39;23.30;51.00
42885;DHT22;28534;48.100;11.584;2022-10-16T14:20:40;23.30;51.40
42885;DHT22;28534;48.100;11.584;2022-10-16T14:25:42;23.40;52.20
42885;DHT22;28534;48.100;11.584;2022-10-16T14:30:53;23.30;54.80
42885;DHT22;28534;48.100;11.584;2022-10-16T14:36:03;23.30;52.80
42885;DHT22;28534;48.100;11.584;2022-10-16T14:41:06;23.20;53.10
42885;DHT22;28534;48.100;11.584;2022-10-16T14:46:13;23.20;52.50
42885;DHT22;28534;48.100;11.584;2022-10-16T14:51:16;23.30;52.80
42885;DHT22;28534;48.100;11.584;2022-10-16T14:56:20;23.20;53.70
42885;DHT22;28534;48.100;11.584;2022-10-16T15:01:24;23.20;54.00
42885;DHT22;28534;48.100;11.584;2022-10-16T15:06:26;23.20;54.80
42885;DHT22;28534;48.100;11.584;2022-10-16T15:11:27;23.10;54.90
42885;DHT22;28534;48.100;11.584;2022-10-16T15:16:31;23.10;55.50
42885;DHT22;28534;48.100;11.584;2022-10-16T15:21:32;23.10;55.30
42885;DHT22;28534;48.100;11.584;2022-10-16T15:26:34;23.00;56.10
42885;DHT22;28534;48.100;11.584;2022-10-16T15:31:37;23.00;56.50
42885;DHT22;28534;48.100;11.584;2022-10-16T15:36:42;23.10;57.10
42885;DHT22;28534;48.100;11.584;2022-10-16T15:41:45;23.00;57.50
42885;DHT22;28534;48.100;11.584;2022-10-16T15:46:54;23.00;57.90
42885;DHT22;28534;48.100;11.584;2022-10-16T15:51:56;23.00;58.60
42885;DHT22;28534;48.100;11.584;2022-10-16T15:56:58;23.00;58.60
42885;DHT22;28534;48.100;11.584;2022-10-16T16:02:01;23.00;59.00
42885;DHT22;28534;48.100;11.584;2022-10-16T16:07:03;23.00;59.20
42885;DHT22;28534;48.100;11.584;2022-10-16T16:12:07;23.00;59.40
42885;DHT22;28534;48.100;11.584;2022-10-16T16:17:10;22.90;59.80
42885;DHT22;28534;48.100;11.584;2022-10-16T16:22:12;22.90;60.00
42885;DHT22;28534;48.100;11.584;2022-10-16T16:27:14;22.90;60.20
42885;DHT22;28534;48.100;11.584;2022-10-16T16:32:17;22.90;60.40
42885;DHT22;28534;48.100;11.584;2022-10-16T16:37:18;22.90;60.60
42885;DHT22;28534;48.100;11.584;2022-10-16T16:42:20;22.90;62.50
42885;DHT22;28534;48.100;11.584;2022-10-16T16:47:23;23.00;62.80
42885;DHT22;28534;48.100;11.584;2022-10-16T16:52:25;23.10;63.60
42885;DHT22;28534;48.100;11.584;2022-10-16T16:57:30;23.10;63.80
42885;DHT22;28534;48.100;11.584;2022-10-16T17:02:33;23.10;64.40
42885;DHT22;28534;48.100;11.584;2022-10-16T17:07:35;23.10;64.60
42885;DHT22;28534;48.100;11.584;2022-10-16T17:12:40;23.10;64.70
42885;DHT22;28534;48.100;11.584;2022-10-16T17:17:43;23.10;65.50
42885;DHT22;28534;48.100;11.584;2022-10-16T17:22:45;23.00;64.40
42885;DHT22;28534;48.100;11.584;2022-10-16T17:27:47;23.00;64.60
42885;DHT22;28534;48.100;11.584;2022-10-16T17:32:50;22.90;64.70
42885;DHT22;28534;48.100;11.584;2022-10-16T17:37:52;23.00;65.10
42885;DHT22;28534;48.100;11.584;2022-10-16T17:42:54;23.00;65.20
42885;DHT22;28534;48.100;11.584;2022-10-16T17:47:57;23.00;65.10
42885;DHT22;28534;48.100;11.584;2022-10-16T17:52:59;22.90;65.10
42885;DHT22;28534;48.100;11.584;2022-10-16T17:58:00;22.90;65.10
42885;DHT22;28534;48.100;11.584;2022-10-16T18:03:04;22.90;65.20
42885;DHT22;28534;48.100;11.584;2022-10-16T18:08:06;22.90;65.20
42885;DHT22;28534;48.100;11.584;2022-10-16T18:13:08;22.90;65.50
42885;DHT22;28534;48.100;11.584;2022-10-16T18:18:11;22.90;65.50
42885;DHT22;28534;48.100;11.584;2022-10-16T18:23:13;22.90;65.70
42885;DHT22;28534;48.100;11.584;2022-10-16T18:28:14;22.90;66.00
42885;DHT22;28534;48.100;11.584;2022-10-16T18:33:17;23.00;66.20
42885;DHT22;28534;48.100;11.584;2022-10-16T18:38:19;22.90;66.50
42885;DHT22;28534;48.100;11.584;2022-10-16T18:43:22;23.00;66.80
42885;DHT22;28534;48.100;11.584;2022-10-16T18:48:25;23.00;66.80
42885;DHT22;28534;48.100;11.584;2022-10-16T18:53:27;23.00;67.10
42885;DHT22;28534;48.100;11.584;2022-10-16T18:58:29;22.90;67.10
42885;DHT22;28534;48.100;11.584;2022-10-16T19:03:32;22.90;67.30
42885;DHT22;28534;48.100;11.584;2022-10-16T19:08:34;22.90;67.30
42885;DHT22;28534;48.100;11.584;2022-10-16T19:13:38;22.90;67.30
42885;DHT22;28534;48.100;11.584;2022-10-16T19:18:41;22.90;67.20
42885;DHT22;28534;48.100;11.584;2022-10-16T19:23:43;22.90;67.40
42885;DHT22;28534;48.100;11.584;2022-10-16T19:28:45;22.90;67.50
42885;DHT22;28534;48.100;11.584;2022-10-16T19:33:51;22.90;67.60
42885;DHT22;28534;48.100;11.584;2022-10-16T19:38:54;22.90;67.70
42885;DHT22;28534;48.100;11.584;2022-10-16T19:43:59;22.90;67.80
42885;DHT22;28534;48.100;11.584;2022-10-16T19:49:06;22.80;67.80
42885;DHT22;28534;48.100;11.584;2022-10-16T19:54:11;22.80;67.80
42885;DHT22;28534;48.100;11.584;2022-10-16T19:59:14;22.80;67.80
42885;DHT22;28534;48.100;11.584;2022-10-16T20:04:19;22.90;67.80
42885;DHT22;28534;48.100;11.584;2022-10-16T20:09:21;22.80;68.00
42885;DHT22;28534;48.100;11.584;2022-10-16T20:14:23;22.80;68.00
42885;DHT22;28534;48.100;11.584;2022-10-16T20:19:26;22.80;67.90
42885;DHT22;28534;48.100;11.584;2022-10-16T20:24:28;22.80;67.90
42885;DHT22;28534;48.100;11.584;2022-10-16T20:29:30;22.80;67.90
42885;DHT22;28534;48.100;11.584;2022-10-16T20:34:33;22.80;68.00
42885;DHT22;28534;48.100;11.584;2022-10-16T20:39:34;22.80;67.90
42885;DHT22;28534;48.100;11.584;2022-10-16T20:44:36;22.80;68.10
42885;DHT22;28534;48.100;11.584;2022-10-16T20:49:39;22.80;68.10
42885;DHT22;28534;48.100;11.584;2022-10-16T20:54:43;22.80;68.10
42885;DHT22;28534;48.100;11.584;2022-10-16T20:59:45;22.80;68.20
